createdAt,value
2022-10-07T00:01:56.745Z,100.00
2022-10-07T00:04:23.165Z,100.00
2022-10-07T00:06:49.797Z,100.00
2022-10-07T00:09:16.401Z,100.00
2022-10-07T00:11:43.188Z,100.00
2022-10-07T00:14:10.269Z,100.00
2022-10-07T00:16:39.114Z,100.00
2022-10-07T00:19:07.800Z,100.00
2022-10-07T00:21:37.014Z,100.00
2022-10-07T00:24:04.599Z,100.00
2022-10-07T00:26:32.895Z,100.00
2022-10-07T00:29:00.557Z,100.00
2022-10-07T00:31:33.033Z,100.00
2022-10-07T00:33:59.707Z,100.00
2022-10-07T00:36:28.910Z,100.00
2022-10-07T00:39:04.599Z,100.00
2022-10-07T00:41:34.633Z,100.00
2022-10-07T00:44:41.419Z,100.00
2022-10-07T00:47:25.460Z,100.00
2022-10-07T00:50:02.534Z,100.00
2022-10-07T00:52:33.608Z,100.00
2022-10-07T00:55:04.239Z,100.00
2022-10-07T00:57:32.099Z,100.00
2022-10-07T00:59:59.481Z,100.00
2022-10-07T01:02:28.620Z,100.00
2022-10-07T01:04:59.057Z,100.00
2022-10-07T01:07:27.000Z,100.00
2022-10-07T01:09:55.067Z,100.00
2022-10-07T01:12:29.333Z,100.00
2022-10-07T01:15:11.046Z,100.00
2022-10-07T01:17:43.527Z,100.00
2022-10-07T01:20:46.694Z,100.00
2022-10-07T01:23:25.980Z,100.00
2022-10-07T01:26:11.116Z,100.00
2022-10-07T01:28:49.010Z,100.00
2022-10-07T01:31:21.406Z,100.00
2022-10-07T01:33:51.104Z,100.00
2022-10-07T01:36:21.910Z,100.00
2022-10-07T01:38:55.477Z,100.00
2022-10-07T01:41:23.217Z,100.00
2022-10-07T01:43:53.595Z,100.00
2022-10-07T01:46:24.459Z,100.00
2022-10-07T01:48:54.935Z,100.00
2022-10-07T01:51:24.167Z,100.00
2022-10-07T01:54:20.192Z,100.00
2022-10-07T01:57:27.968Z,100.00
2022-10-07T02:00:08.302Z,100.00
2022-10-07T02:02:43.491Z,100.00
2022-10-07T02:05:13.877Z,100.00
2022-10-07T02:07:59.249Z,100.00
2022-10-07T02:10:32.272Z,100.00
2022-10-07T02:13:35.672Z,100.00
2022-10-07T02:16:27.180Z,100.00
2022-10-07T02:18:54.133Z,100.00
2022-10-07T02:21:25.097Z,100.00
2022-10-07T02:23:56.311Z,100.00
2022-10-07T02:26:25.664Z,100.00
2022-10-07T02:28:54.880Z,100.00
2022-10-07T02:31:26.185Z,100.00
2022-10-07T02:33:57.083Z,100.00
2022-10-07T02:36:32.506Z,100.00
2022-10-07T02:39:01.161Z,100.00
2022-10-07T02:41:45.883Z,100.00
2022-10-07T02:44:26.072Z,100.00
2022-10-07T02:47:11.911Z,100.00
2022-10-07T02:49:42.040Z,100.00
2022-10-07T02:52:13.994Z,100.00
2022-10-07T02:54:47.531Z,100.00
2022-10-07T02:57:18.771Z,100.00
2022-10-07T02:59:48.315Z,100.00
2022-10-07T03:02:24.575Z,100.00
2022-10-07T03:04:51.532Z,100.00
2022-10-07T03:07:18.045Z,100.00
2022-10-07T03:09:44.652Z,100.00
2022-10-07T03:12:11.117Z,100.00
2022-10-07T03:14:41.097Z,100.00
2022-10-07T03:17:07.522Z,100.00
2022-10-07T03:19:33.994Z,100.00
2022-10-07T03:22:00.413Z,100.00
2022-10-07T03:24:26.865Z,100.00
2022-10-07T03:26:53.394Z,100.00
2022-10-07T03:29:19.921Z,100.00
2022-10-07T03:31:46.369Z,100.00
2022-10-07T03:34:12.854Z,100.00
2022-10-07T03:36:39.332Z,100.00
2022-10-07T03:39:05.758Z,100.00
2022-10-07T03:41:32.864Z,100.00
2022-10-07T03:43:59.398Z,100.00
2022-10-07T03:46:25.976Z,100.00
2022-10-07T03:48:52.497Z,100.00
2022-10-07T03:51:19.026Z,100.00
2022-10-07T03:53:45.546Z,100.00
2022-10-07T03:56:12.077Z,100.00
2022-10-07T03:58:39.283Z,100.00
2022-10-07T04:01:06.973Z,100.00
2022-10-07T04:03:33.536Z,100.00
2022-10-07T04:06:00.633Z,100.00
2022-10-07T04:08:33.028Z,100.00
2022-10-07T04:11:00.843Z,100.00
2022-10-07T04:13:27.682Z,100.00
2022-10-07T04:15:54.921Z,100.00
2022-10-07T04:18:21.968Z,100.00
2022-10-07T04:20:48.436Z,100.00
2022-10-07T04:23:15.851Z,100.00
2022-10-07T04:25:47.075Z,100.00
2022-10-07T04:28:26.125Z,100.00
2022-10-07T04:30:53.940Z,100.00
2022-10-07T04:33:23.874Z,100.00
2022-10-07T04:35:51.198Z,100.00
2022-10-07T04:38:18.503Z,100.00
2022-10-07T04:40:48.051Z,100.00
2022-10-07T04:43:20.157Z,100.00
2022-10-07T04:45:55.121Z,100.00
2022-10-07T04:48:23.427Z,100.00
2022-10-07T04:50:51.831Z,100.00
2022-10-07T04:53:19.769Z,100.00
2022-10-07T04:55:48.651Z,100.00
2022-10-07T04:58:15.787Z,100.00
2022-10-07T05:00:44.324Z,100.00
2022-10-07T05:03:12.611Z,100.00
2022-10-07T05:05:46.991Z,100.00
2022-10-07T05:08:15.320Z,100.00
2022-10-07T05:10:42.843Z,100.00
2022-10-07T05:13:12.399Z,100.00
2022-10-07T05:15:48.057Z,100.00
2022-10-07T05:18:15.509Z,100.00
2022-10-07T05:20:43.398Z,100.00
2022-10-07T05:23:09.952Z,100.00
2022-10-07T05:25:36.480Z,100.00
2022-10-07T05:28:03.001Z,100.00
2022-10-07T05:30:29.531Z,100.00
2022-10-07T05:32:56.194Z,100.00
2022-10-07T05:35:23.006Z,100.00
2022-10-07T05:37:53.825Z,100.00
2022-10-07T05:40:21.398Z,100.00
2022-10-07T05:42:47.843Z,100.00
2022-10-07T05:45:14.378Z,100.00
2022-10-07T05:47:40.956Z,100.00
2022-10-07T05:50:08.394Z,100.00
2022-10-07T05:52:35.624Z,100.00
2022-10-07T05:55:02.368Z,100.00
2022-10-07T05:57:28.898Z,100.00
2022-10-07T05:59:56.578Z,100.00
2022-10-07T06:02:23.138Z,100.00
2022-10-07T06:04:49.865Z,100.00
2022-10-07T06:07:20.943Z,100.00
2022-10-07T06:10:07.861Z,100.00
2022-10-07T06:12:52.717Z,100.00
2022-10-07T06:15:19.188Z,100.00
2022-10-07T06:17:46.076Z,100.00
2022-10-07T06:20:14.242Z,100.00
2022-10-07T06:22:41.329Z,100.00
2022-10-07T06:25:08.410Z,100.00
2022-10-07T06:27:36.256Z,100.00
2022-10-07T06:30:03.158Z,100.00
2022-10-07T06:32:32.697Z,100.00
2022-10-07T06:34:59.155Z,100.00
2022-10-07T06:37:25.701Z,100.00
2022-10-07T06:39:54.319Z,100.00
2022-10-07T06:42:23.974Z,100.00
2022-10-07T06:44:53.709Z,100.00
2022-10-07T06:47:21.465Z,100.00
2022-10-07T06:49:48.046Z,100.00
2022-10-07T06:52:14.601Z,100.00
2022-10-07T06:54:41.096Z,100.00
2022-10-07T06:57:26.412Z,100.00
2022-10-07T06:59:55.338Z,100.00
2022-10-07T07:02:22.201Z,100.00
2022-10-07T07:04:48.734Z,100.00
2022-10-07T07:07:15.267Z,100.00
2022-10-07T07:09:41.714Z,100.00
2022-10-07T07:12:08.201Z,100.00
2022-10-07T07:14:36.077Z,100.00
2022-10-07T07:17:02.680Z,100.00
2022-10-07T07:19:29.560Z,100.00
2022-10-07T07:21:56.200Z,100.00
2022-10-07T07:24:22.665Z,100.00
2022-10-07T07:26:49.168Z,100.00
2022-10-07T07:29:16.578Z,100.00
2022-10-07T07:31:44.035Z,100.00
2022-10-07T07:34:12.944Z,100.00
2022-10-07T07:36:43.783Z,100.00
2022-10-07T07:39:12.827Z,100.00
2022-10-07T07:41:41.964Z,100.00
2022-10-07T07:44:11.656Z,100.00
2022-10-07T07:46:41.824Z,100.00
2022-10-07T07:49:10.484Z,100.00
2022-10-07T07:51:37.562Z,100.00
2022-10-07T07:54:04.462Z,100.00
2022-10-07T07:56:33.781Z,100.00
2022-10-07T07:59:01.536Z,100.00
2022-10-07T08:01:32.040Z,100.00
2022-10-07T08:04:00.915Z,100.00
2022-10-07T08:06:28.581Z,100.00
2022-10-07T08:08:57.305Z,100.00
2022-10-07T08:11:24.364Z,100.00
2022-10-07T08:13:51.597Z,100.00
2022-10-07T08:16:20.302Z,100.00
2022-10-07T08:18:49.595Z,100.00
2022-10-07T08:21:19.173Z,100.00
2022-10-07T08:23:48.157Z,100.00
2022-10-07T08:26:14.993Z,100.00
2022-10-07T08:28:42.072Z,100.00
2022-10-07T08:31:12.074Z,100.00
2022-10-07T08:33:40.737Z,100.00
2022-10-07T08:36:10.797Z,100.00
2022-10-07T08:38:39.175Z,100.00
2022-10-07T08:41:08.719Z,100.00
2022-10-07T08:43:41.030Z,100.00
2022-10-07T08:46:14.123Z,100.00
2022-10-07T08:48:42.783Z,100.00
2022-10-07T08:51:40.262Z,100.00
2022-10-07T08:54:13.461Z,100.00
2022-10-07T08:56:41.342Z,100.00
2022-10-07T08:59:22.554Z,100.00
2022-10-07T09:02:13.923Z,100.00
2022-10-07T09:04:58.874Z,100.00
2022-10-07T09:07:34.230Z,99.49
2022-10-07T09:10:10.124Z,99.52
2022-10-07T09:12:44.711Z,96.64
2022-10-07T09:15:38.124Z,95.91
2022-10-07T09:18:16.277Z,94.42
2022-10-07T09:20:47.113Z,94.35
2022-10-07T09:23:15.452Z,92.76
2022-10-07T09:25:43.357Z,92.98
2022-10-07T09:28:15.463Z,90.83
2022-10-07T09:30:42.660Z,91.74
2022-10-07T09:33:15.461Z,87.51
2022-10-07T09:35:45.619Z,86.95
2022-10-07T09:38:12.087Z,87.63
2022-10-07T09:40:59.976Z,86.78
2022-10-07T09:43:27.704Z,86.32
2022-10-07T09:45:56.226Z,85.30
2022-10-07T09:48:27.295Z,85.15
2022-10-07T09:51:13.970Z,83.67
2022-10-07T09:53:58.520Z,83.58
2022-10-07T09:56:43.380Z,84.22
2022-10-07T09:59:32.182Z,82.30
2022-10-07T10:02:17.748Z,81.02
2022-10-07T10:04:48.995Z,82.97
2022-10-07T10:07:30.655Z,79.46
2022-10-07T10:10:03.422Z,78.53
2022-10-07T10:12:36.169Z,77.53
2022-10-07T10:15:23.516Z,75.36
2022-10-07T10:17:51.145Z,75.90
2022-10-07T10:20:23.490Z,76.38
2022-10-07T10:22:50.986Z,74.95
2022-10-07T10:25:52.690Z,76.09
2022-10-07T10:28:34.781Z,71.55
2022-10-07T10:31:14.846Z,70.22
2022-10-07T10:34:00.808Z,70.90
2022-10-07T10:36:31.170Z,68.24
2022-10-07T10:39:03.787Z,68.13
2022-10-07T10:41:50.728Z,67.43
2022-10-07T10:44:32.262Z,69.08
2022-10-07T10:47:02.210Z,66.37
2022-10-07T10:49:42.783Z,65.58
2022-10-07T10:52:20.935Z,67.36
2022-10-07T10:55:05.663Z,65.42
2022-10-07T10:57:47.456Z,64.00
2022-10-07T11:00:18.987Z,62.84
2022-10-07T11:03:25.608Z,59.78
2022-10-07T11:05:54.904Z,59.54
2022-10-07T11:08:27.585Z,59.99
2022-10-07T11:11:17.137Z,59.43
2022-10-07T11:13:50.928Z,58.69
2022-10-07T11:16:30.939Z,57.73
2022-10-07T11:19:19.410Z,57.16
2022-10-07T11:21:54.641Z,58.14
2022-10-07T11:24:41.173Z,56.80
2022-10-07T11:27:26.375Z,59.42
2022-10-07T11:30:06.558Z,57.22
2022-10-07T11:32:45.373Z,57.59
2022-10-07T11:35:32.741Z,56.91
2022-10-07T11:38:14.451Z,55.14
2022-10-07T11:40:46.284Z,56.81
2022-10-07T11:43:22.601Z,57.41
2022-10-07T11:45:54.220Z,55.58
2022-10-07T11:48:41.173Z,55.68
2022-10-07T11:51:17.644Z,54.97
2022-10-07T11:53:44.824Z,55.29
2022-10-07T11:56:21.823Z,52.64
2022-10-07T11:58:59.245Z,51.94
2022-10-07T12:01:25.703Z,53.33
2022-10-07T12:03:54.595Z,52.16
2022-10-07T12:06:21.098Z,52.40
2022-10-07T12:08:47.583Z,50.36
2022-10-07T12:11:22.624Z,53.34
2022-10-07T12:13:51.348Z,53.70
2022-10-07T12:16:24.063Z,55.17
2022-10-07T12:19:10.743Z,53.39
2022-10-07T12:21:57.123Z,52.13
2022-10-07T12:24:23.651Z,50.24
2022-10-07T12:26:50.443Z,51.39
2022-10-07T12:29:23.818Z,48.71
2022-10-07T12:31:50.536Z,50.70
2022-10-07T12:34:39.570Z,47.35
2022-10-07T12:37:40.188Z,47.25
2022-10-07T12:40:29.688Z,46.83
2022-10-07T12:43:10.765Z,45.62
2022-10-07T12:45:41.267Z,46.12
2022-10-07T12:48:15.705Z,46.19
2022-10-07T12:50:44.556Z,46.26
2022-10-07T12:53:12.413Z,43.87
2022-10-07T12:55:48.196Z,43.32
2022-10-07T12:58:39.309Z,46.69
2022-10-07T13:01:43.226Z,47.71
2022-10-07T13:04:47.177Z,47.87
2022-10-07T13:07:32.189Z,47.37
2022-10-07T13:10:10.909Z,48.30
2022-10-07T13:12:56.067Z,47.05
2022-10-07T13:15:53.852Z,46.26
2022-10-07T13:18:42.171Z,45.45
2022-10-07T13:21:27.197Z,44.02
2022-10-07T13:23:55.592Z,44.57
2022-10-07T13:26:23.802Z,44.01
2022-10-07T13:28:50.306Z,43.70
2022-10-07T13:31:30.720Z,43.71
2022-10-07T13:33:59.518Z,42.69
2022-10-07T13:36:28.276Z,41.54
2022-10-07T13:39:12.079Z,40.04
2022-10-07T13:41:42.568Z,40.19
2022-10-07T13:44:14.174Z,40.00
2022-10-07T13:46:55.271Z,38.42
2022-10-07T13:49:29.281Z,37.30
2022-10-07T13:51:58.595Z,37.35
2022-10-07T13:54:29.171Z,37.02
2022-10-07T13:56:55.889Z,36.66
2022-10-07T13:59:23.137Z,36.42
2022-10-07T14:01:55.404Z,37.22
2022-10-07T14:04:34.280Z,36.78
2022-10-07T14:07:12.882Z,36.29
2022-10-07T14:10:00.912Z,36.72
2022-10-07T14:12:47.309Z,36.24
2022-10-07T14:15:21.645Z,36.93
2022-10-07T14:17:54.695Z,37.35
2022-10-07T14:20:30.299Z,37.19
2022-10-07T14:23:02.455Z,37.32
2022-10-07T14:25:31.543Z,38.63
2022-10-07T14:27:58.714Z,39.91
2022-10-07T14:30:57.339Z,40.23
2022-10-07T14:33:43.991Z,40.47
2022-10-07T14:36:22.001Z,40.92
2022-10-07T14:38:50.628Z,42.22
2022-10-07T14:41:20.060Z,40.91
2022-10-07T14:43:49.142Z,41.22
2022-10-07T14:46:18.454Z,39.39
2022-10-07T14:48:46.274Z,39.44
2022-10-07T14:51:15.168Z,39.92
2022-10-07T14:53:42.607Z,40.27
2022-10-07T14:56:15.204Z,40.68
2022-10-07T14:58:42.444Z,40.97
2022-10-07T15:01:08.944Z,41.48
2022-10-07T15:03:35.438Z,42.44
2022-10-07T15:06:02.071Z,43.17
2022-10-07T15:08:29.125Z,43.86
2022-10-07T15:10:55.638Z,44.22
2022-10-07T15:13:22.232Z,44.99
2022-10-07T15:15:49.230Z,44.17
2022-10-07T15:18:15.694Z,44.51
2022-10-07T15:20:42.173Z,44.96
2022-10-07T15:23:09.388Z,46.16
2022-10-07T15:25:39.761Z,46.77
2022-10-07T15:28:06.304Z,47.42
2022-10-07T15:30:38.339Z,48.23
2022-10-07T15:33:05.912Z,48.63
2022-10-07T15:35:33.399Z,50.24
2022-10-07T15:37:59.821Z,50.64
2022-10-07T15:40:26.329Z,50.83
2022-10-07T15:42:52.774Z,50.86
2022-10-07T15:45:19.471Z,51.24
2022-10-07T15:47:46.014Z,51.68
2022-10-07T15:50:12.464Z,52.69
2022-10-07T15:52:38.989Z,53.03
2022-10-07T15:55:07.878Z,54.30
2022-10-07T15:57:35.162Z,54.04
2022-10-07T16:00:02.445Z,54.98
2022-10-07T16:02:29.066Z,55.51
2022-10-07T16:04:55.773Z,55.76
2022-10-07T16:07:23.245Z,55.37
2022-10-07T16:09:49.658Z,56.06
2022-10-07T16:12:16.190Z,56.52
2022-10-07T16:14:42.655Z,57.01
2022-10-07T16:17:09.077Z,56.80
2022-10-07T16:19:35.524Z,58.21
2022-10-07T16:22:02.006Z,57.53
2022-10-07T16:24:34.004Z,58.20
2022-10-07T16:27:01.595Z,59.46
2022-10-07T16:29:46.604Z,59.77
2022-10-07T16:32:13.185Z,60.15
2022-10-07T16:34:43.298Z,61.14
2022-10-07T16:37:10.629Z,61.71
2022-10-07T16:39:37.111Z,61.79
2022-10-07T16:42:04.028Z,62.23
2022-10-07T16:44:30.442Z,62.13
2022-10-07T16:46:57.976Z,62.84
2022-10-07T16:49:26.167Z,63.65
2022-10-07T16:51:53.076Z,64.08
2022-10-07T16:54:20.366Z,64.30
2022-10-07T16:56:50.574Z,66.81
2022-10-07T16:59:22.464Z,66.23
2022-10-07T17:01:55.678Z,66.76
2022-10-07T17:04:23.818Z,67.02
2022-10-07T17:06:50.424Z,68.23
2022-10-07T17:09:18.252Z,69.66
2022-10-07T17:11:45.388Z,69.45
2022-10-07T17:14:11.915Z,71.02
2022-10-07T17:16:44.312Z,74.30
2022-10-07T17:19:13.620Z,73.76
2022-10-07T17:21:41.934Z,77.57
2022-10-07T17:24:09.669Z,80.54
2022-10-07T17:26:37.592Z,80.55
2022-10-07T17:29:07.736Z,83.58
2022-10-07T17:31:36.689Z,84.36
2022-10-07T17:34:05.770Z,85.86
2022-10-07T17:36:32.792Z,86.19
2022-10-07T17:38:59.650Z,86.52
2022-10-07T17:41:31.140Z,87.74
2022-10-07T17:43:59.788Z,88.74
2022-10-07T17:46:29.541Z,87.16
2022-10-07T17:48:57.973Z,88.80
2022-10-07T17:51:28.145Z,89.37
2022-10-07T17:54:03.779Z,92.18
2022-10-07T17:56:31.981Z,91.33
2022-10-07T17:58:59.016Z,94.71
2022-10-07T18:01:28.049Z,92.29
2022-10-07T18:03:59.253Z,93.63
2022-10-07T18:06:31.121Z,94.08
2022-10-07T18:09:02.216Z,97.33
2022-10-07T18:11:47.981Z,96.82
2022-10-07T18:14:33.330Z,97.56
2022-10-07T18:17:00.357Z,96.10
2022-10-07T18:19:27.227Z,98.53
2022-10-07T18:21:56.189Z,100.00
2022-10-07T18:24:23.890Z,100.00
2022-10-07T18:26:50.463Z,100.00
2022-10-07T18:29:17.367Z,100.00
2022-10-07T18:31:43.890Z,100.00
2022-10-07T18:34:10.861Z,100.00
2022-10-07T18:36:37.540Z,100.00
2022-10-07T18:39:08.103Z,100.00
2022-10-07T18:41:34.587Z,100.00
2022-10-07T18:44:00.990Z,100.00
2022-10-07T18:46:27.460Z,100.00
2022-10-07T18:48:54.192Z,100.00
2022-10-07T18:51:20.715Z,100.00
2022-10-07T18:53:47.334Z,100.00
2022-10-07T18:56:16.378Z,100.00
2022-10-07T18:58:45.147Z,100.00
2022-10-07T19:01:12.851Z,100.00
2022-10-07T19:03:39.979Z,100.00
2022-10-07T19:06:13.103Z,100.00
2022-10-07T19:08:39.705Z,100.00
2022-10-07T19:11:08.475Z,100.00
2022-10-07T19:13:56.082Z,100.00
2022-10-07T19:16:25.427Z,100.00
2022-10-07T19:18:54.496Z,100.00
2022-10-07T19:21:21.174Z,100.00
2022-10-07T19:23:49.182Z,100.00
2022-10-07T19:26:21.399Z,100.00
2022-10-07T19:28:49.830Z,100.00
2022-10-07T19:31:19.751Z,100.00
2022-10-07T19:33:49.898Z,100.00
2022-10-07T19:36:18.886Z,100.00
2022-10-07T19:38:46.808Z,100.00
2022-10-07T19:41:15.869Z,100.00
2022-10-07T19:43:43.850Z,100.00
2022-10-07T19:46:11.189Z,100.00
2022-10-07T19:48:38.533Z,100.00
2022-10-07T19:51:08.688Z,100.00
2022-10-07T19:53:35.890Z,100.00
2022-10-07T19:56:05.004Z,100.00
2022-10-07T19:58:31.840Z,100.00
2022-10-07T20:01:10.793Z,100.00
2022-10-07T20:03:37.306Z,100.00
2022-10-07T20:06:07.653Z,100.00
2022-10-07T20:08:36.810Z,100.00
2022-10-07T20:11:05.042Z,100.00
2022-10-07T20:13:33.052Z,100.00
2022-10-07T20:16:18.838Z,100.00
2022-10-07T20:18:47.869Z,100.00
2022-10-07T20:21:17.546Z,100.00
2022-10-07T20:23:46.634Z,100.00
2022-10-07T20:26:22.151Z,100.00
2022-10-07T20:28:51.247Z,100.00
2022-10-07T20:31:21.235Z,100.00
2022-10-07T20:33:49.957Z,100.00
2022-10-07T20:36:22.395Z,100.00
2022-10-07T20:39:13.566Z,100.00
2022-10-07T20:41:58.513Z,100.00
2022-10-07T20:44:24.952Z,100.00
2022-10-07T20:46:51.966Z,100.00
2022-10-07T20:49:25.152Z,100.00
2022-10-07T20:51:54.022Z,100.00
2022-10-07T20:54:22.692Z,100.00
2022-10-07T20:56:51.738Z,100.00
2022-10-07T20:59:18.305Z,100.00
2022-10-07T21:01:45.324Z,100.00
2022-10-07T21:04:13.941Z,100.00
2022-10-07T21:06:40.857Z,100.00
2022-10-07T21:09:08.260Z,100.00
2022-10-07T21:11:35.332Z,100.00
2022-10-07T21:14:01.804Z,100.00
2022-10-07T21:16:30.714Z,100.00
2022-10-07T21:18:57.352Z,100.00
2022-10-07T21:21:24.448Z,100.00
2022-10-07T21:23:51.594Z,100.00
2022-10-07T21:26:19.066Z,100.00
2022-10-07T21:28:48.178Z,100.00
2022-10-07T21:31:20.029Z,100.00
2022-10-07T21:33:49.815Z,100.00
2022-10-07T21:36:20.043Z,100.00
2022-10-07T21:38:52.045Z,100.00
2022-10-07T21:41:22.076Z,100.00
2022-10-07T21:43:54.064Z,100.00
2022-10-07T21:46:21.910Z,100.00
2022-10-07T21:48:48.554Z,100.00
2022-10-07T21:51:15.153Z,100.00
2022-10-07T21:53:41.893Z,100.00
2022-10-07T21:56:12.340Z,100.00
2022-10-07T21:58:39.228Z,100.00
2022-10-07T22:01:13.898Z,100.00
2022-10-07T22:03:40.848Z,100.00
2022-10-07T22:06:09.618Z,100.00
2022-10-07T22:08:37.749Z,100.00
2022-10-07T22:11:07.229Z,100.00
2022-10-07T22:13:36.521Z,100.00
2022-10-07T22:16:08.886Z,100.00
2022-10-07T22:18:36.262Z,100.00
2022-10-07T22:21:10.850Z,100.00
2022-10-07T22:23:37.471Z,100.00
2022-10-07T22:26:05.693Z,100.00
2022-10-07T22:28:35.478Z,100.00
2022-10-07T22:31:03.482Z,100.00
2022-10-07T22:33:30.040Z,100.00
2022-10-07T22:35:56.499Z,100.00
2022-10-07T22:38:25.353Z,100.00
2022-10-07T22:40:52.092Z,100.00
2022-10-07T22:43:18.547Z,100.00
2022-10-07T22:45:55.356Z,100.00
2022-10-07T22:48:21.802Z,100.00
2022-10-07T22:50:48.268Z,100.00
2022-10-07T22:53:14.705Z,100.00
2022-10-07T22:55:41.194Z,100.00
2022-10-07T22:58:07.680Z,100.00
2022-10-07T23:00:34.210Z,100.00
2022-10-07T23:03:00.913Z,100.00
2022-10-07T23:05:27.485Z,100.00
2022-10-07T23:07:53.988Z,100.00
2022-10-07T23:10:20.459Z,100.00
2022-10-07T23:12:47.160Z,100.00
2022-10-07T23:15:16.375Z,100.00
2022-10-07T23:17:42.793Z,100.00
2022-10-07T23:20:09.482Z,100.00
2022-10-07T23:22:35.978Z,100.00
2022-10-07T23:25:04.205Z,100.00
2022-10-07T23:27:30.670Z,100.00
2022-10-07T23:29:57.176Z,100.00
2022-10-07T23:32:23.807Z,100.00
2022-10-07T23:34:50.260Z,100.00
2022-10-07T23:37:16.724Z,100.00
2022-10-07T23:39:43.165Z,100.00
2022-10-07T23:42:09.660Z,100.00
2022-10-07T23:44:36.101Z,100.00
2022-10-07T23:47:02.580Z,100.00
2022-10-07T23:49:29.092Z,100.00
2022-10-07T23:51:55.556Z,100.00
2022-10-07T23:54:22.038Z,100.00
2022-10-07T23:56:49.258Z,100.00
2022-10-07T23:59:15.670Z,100.00
